Time (yr/mo/day/hr) Wind Speed at 50 metres (Glencore Tower; km/hr) Wind Direction at 50 metres (Glencore Tower; degrees) Temperature (oC) SO2 Dispersion Conditions Mixing Height (m)
2021 06 20 13 18 246 24 Slightly unstable 1872
2021 06 20 14 20 252 23 Slightly unstable 1998
2021 06 20 15 20 249 23 Slightly unstable 1987
2021 06 20 16 17 258 23 Slightly unstable 2009
2021 06 20 17 13 244 23 Moderately unstable 2032
2021 06 20 18 15 224 23 Slightly unstable 1999
2021 06 20 19 12 225 21 Slightly unstable 589
2021 06 20 20 11 218 20 Neutral 809
2021 06 20 21 10 211 18 Stable 353
2021 06 20 22 7 213 18 Stable 125
2021 06 20 23 9 196 17 Stable 260
2021 06 21 00 12 145 17 Stable 455
2021 06 21 01 13 140 17 Slightly stable 533
2021 06 21 02 15 138 17 Slightly stable 720
2021 06 21 03 11 135 16 Stable 428
2021 06 21 04 13 137 15 Slightly stable 529
2021 06 21 05 16 151 15 Slightly stable 841
2021 06 21 06 14 156 16 Neutral 899
2021 06 21 07 19 194 17 Neutral 932
2021 06 21 08 20 217 18 Neutral 1068
2021 06 21 09 22 234 19 Neutral 1254
2021 06 21 10 21 241 19 Neutral 1305
2021 06 21 11 25 238 20 Neutral 1574
2021 06 21 12 26 242 20 Neutral 2172
2021 06 21 13 25 259 20 Neutral 2255